sensor_id;sensor_type;location;lat;lon;timestamp;pressure;altitude;pressure_sealevel;temperature;humidity
75063;BME280;63981;51.052;13.754;2023-06-04T00:01:10;100885.31;;;9.20;60.04
75063;BME280;63981;51.052;13.754;2023-06-04T00:03:36;100888.03;;;9.19;60.95
75063;BME280;63981;51.052;13.754;2023-06-04T00:06:02;100883.84;;;9.32;61.09
75063;BME280;63981;51.052;13.754;2023-06-04T00:08:28;100883.31;;;9.25;61.39
75063;BME280;63981;51.052;13.754;2023-06-04T00:10:53;100885.25;;;9.22;61.61
75063;BME280;63981;51.052;13.754;2023-06-04T00:13:19;100878.06;;;9.42;62.49
75063;BME280;63981;51.052;13.754;2023-06-04T00:15:45;100831.47;;;9.10;62.06
75063;BME280;63981;51.052;13.754;2023-06-04T00:18:11;100867.53;;;9.25;61.52
75063;BME280;63981;51.052;13.754;2023-06-04T00:20:39;100879.97;;;9.22;63.27
75063;BME280;63981;51.052;13.754;2023-06-04T00:23:04;100875.19;;;9.12;63.91
75063;BME280;63981;51.052;13.754;2023-06-04T00:25:31;100877.59;;;9.00;62.93
75063;BME280;63981;51.052;13.754;2023-06-04T00:27:56;100868.34;;;8.91;64.09
75063;BME280;63981;51.052;13.754;2023-06-04T00:30:22;100872.44;;;8.97;64.84
75063;BME280;63981;51.052;13.754;2023-06-04T00:32:48;100872.84;;;9.06;64.16
75063;BME280;63981;51.052;13.754;2023-06-04T00:35:14;100794.78;;;8.55;65.28
75063;BME280;63981;51.052;13.754;2023-06-04T00:37:40;100875.31;;;8.92;64.98
75063;BME280;63981;51.052;13.754;2023-06-04T00:40:06;100866.09;;;8.83;65.67
75063;BME280;63981;51.052;13.754;2023-06-04T00:42:32;100869.31;;;8.71;64.95
75063;BME280;63981;51.052;13.754;2023-06-04T00:44:58;100786.00;;;8.18;65.69
75063;BME280;63981;51.052;13.754;2023-06-04T00:47:24;100831.69;;;8.33;66.11
75063;BME280;63981;51.052;13.754;2023-06-04T00:49:53;100795.56;;;8.19;64.42
75063;BME280;63981;51.052;13.754;2023-06-04T00:52:19;100819.09;;;8.41;66.36
75063;BME280;63981;51.052;13.754;2023-06-04T00:54:45;100866.50;;;8.57;66.38
75063;BME280;63981;51.052;13.754;2023-06-04T00:57:11;100860.03;;;8.45;66.95
75063;BME280;63981;51.052;13.754;2023-06-04T00:59:38;100864.50;;;8.43;66.34
75063;BME280;63981;51.052;13.754;2023-06-04T01:02:09;100855.09;;;8.39;65.70
75063;BME280;63981;51.052;13.754;2023-06-04T01:04:45;100817.72;;;8.14;68.13
75063;BME280;63981;51.052;13.754;2023-06-04T01:07:13;100864.97;;;8.33;67.65
75063;BME280;63981;51.052;13.754;2023-06-04T01:09:39;100866.97;;;8.27;68.08
75063;BME280;63981;51.052;13.754;2023-06-04T01:12:07;100862.72;;;8.25;68.68
75063;BME280;63981;51.052;13.754;2023-06-04T01:14:33;100864.97;;;8.33;67.64
75063;BME280;63981;51.052;13.754;2023-06-04T01:20:02;100859.00;;;8.49;68.03
75063;BME280;63981;51.052;13.754;2023-06-04T01:27:48;100854.47;;;8.34;68.41
75063;BME280;63981;51.052;13.754;2023-06-04T01:30:15;100846.13;;;8.24;68.13
75063;BME280;63981;51.052;13.754;2023-06-04T01:32:42;100841.22;;;8.17;68.73
75063;BME280;63981;51.052;13.754;2023-06-04T01:35:10;100814.31;;;7.93;68.49
75063;BME280;63981;51.052;13.754;2023-06-04T01:37:55;100858.75;;;8.16;69.11
75063;BME280;63981;51.052;13.754;2023-06-04T01:40:22;100741.41;;;7.42;69.51
75063;BME280;63981;51.052;13.754;2023-06-04T01:42:49;100859.75;;;8.14;68.98
75063;BME280;63981;51.052;13.754;2023-06-04T01:45:15;100852.78;;;8.13;70.09
75063;BME280;63981;51.052;13.754;2023-06-04T01:47:41;100860.06;;;8.06;69.58
75063;BME280;63981;51.052;13.754;2023-06-04T01:50:07;100843.41;;;7.88;70.37
75063;BME280;63981;51.052;13.754;2023-06-04T01:52:36;100859.06;;;7.90;70.67
75063;BME280;63981;51.052;13.754;2023-06-04T01:55:06;100862.06;;;7.82;70.79
75063;BME280;63981;51.052;13.754;2023-06-04T01:57:33;100856.75;;;7.84;70.67
75063;BME280;63981;51.052;13.754;2023-06-04T01:59:59;100790.00;;;7.50;71.15
75063;BME280;63981;51.052;13.754;2023-06-04T02:02:26;100855.75;;;7.86;71.14
75063;BME280;63981;51.052;13.754;2023-06-04T02:04:54;100853.03;;;7.88;71.40
75063;BME280;63981;51.052;13.754;2023-06-04T02:07:20;100860.94;;;7.67;71.62
75063;BME280;63981;51.052;13.754;2023-06-04T02:09:47;100869.38;;;7.55;71.38
75063;BME280;63981;51.052;13.754;2023-06-04T02:12:13;100870.34;;;7.53;72.53
75063;BME280;63981;51.052;13.754;2023-06-04T02:14:40;100800.38;;;7.13;72.61
75063;BME280;63981;51.052;13.754;2023-06-04T02:17:08;100843.44;;;7.27;72.88
75063;BME280;63981;51.052;13.754;2023-06-04T02:19:42;100869.31;;;7.57;71.81
75063;BME280;63981;51.052;13.754;2023-06-04T02:22:16;100870.72;;;7.64;70.91
75063;BME280;63981;51.052;13.754;2023-06-04T02:24:42;100833.44;;;7.37;71.94
75063;BME280;63981;51.052;13.754;2023-06-04T02:27:09;100873.41;;;7.42;72.34
75063;BME280;63981;51.052;13.754;2023-06-04T02:29:36;100868.75;;;7.28;72.88
75063;BME280;63981;51.052;13.754;2023-06-04T02:32:03;100824.09;;;6.89;73.38
75063;BME280;63981;51.052;13.754;2023-06-04T02:34:29;100874.13;;;7.05;73.05
75063;BME280;63981;51.052;13.754;2023-06-04T02:36:56;100836.13;;;6.73;74.01
75063;BME280;63981;51.052;13.754;2023-06-04T02:39:22;100875.41;;;6.95;74.20
75063;BME280;63981;51.052;13.754;2023-06-04T02:41:48;100867.63;;;6.93;74.10
75063;BME280;63981;51.052;13.754;2023-06-04T02:44:14;100870.59;;;6.84;74.13
75063;BME280;63981;51.052;13.754;2023-06-04T02:46:40;100881.34;;;6.78;74.36
75063;BME280;63981;51.052;13.754;2023-06-04T02:49:06;100870.88;;;6.78;73.85
75063;BME280;63981;51.052;13.754;2023-06-04T02:51:32;100879.19;;;6.88;74.50
75063;BME280;63981;51.052;13.754;2023-06-04T02:53:58;100840.88;;;6.63;74.41
75063;BME280;63981;51.052;13.754;2023-06-04T02:56:24;100886.25;;;6.86;73.79
75063;BME280;63981;51.052;13.754;2023-06-04T02:58:54;100882.84;;;6.84;74.02
75063;BME280;63981;51.052;13.754;2023-06-04T03:01:22;100877.34;;;6.90;74.45
75063;BME280;63981;51.052;13.754;2023-06-04T03:03:49;100836.59;;;6.61;74.98
75063;BME280;63981;51.052;13.754;2023-06-04T03:06:16;100838.25;;;6.63;74.35
75063;BME280;63981;51.052;13.754;2023-06-04T03:08:43;100883.47;;;6.90;74.65
75063;BME280;63981;51.052;13.754;2023-06-04T03:11:09;100894.84;;;6.89;75.50
75063;BME280;63981;51.052;13.754;2023-06-04T03:13:35;100881.63;;;6.92;74.53
75063;BME280;63981;51.052;13.754;2023-06-04T03:16:01;100881.16;;;7.03;74.23
75063;BME280;63981;51.052;13.754;2023-06-04T03:18:29;100889.28;;;7.19;73.99
75063;BME280;63981;51.052;13.754;2023-06-04T03:20:55;100890.91;;;7.21;73.95
75063;BME280;63981;51.052;13.754;2023-06-04T03:23:21;100882.75;;;7.49;72.38
75063;BME280;63981;51.052;13.754;2023-06-04T03:25:47;100887.59;;;7.58;72.17
75063;BME280;63981;51.052;13.754;2023-06-04T03:28:13;100888.59;;;7.56;72.91
75063;BME280;63981;51.052;13.754;2023-06-04T03:30:40;100893.81;;;7.35;73.07
75063;BME280;63981;51.052;13.754;2023-06-04T03:33:07;100898.50;;;7.27;73.10
75063;BME280;63981;51.052;13.754;2023-06-04T03:35:33;100896.16;;;7.21;73.07
75063;BME280;63981;51.052;13.754;2023-06-04T03:37:59;100901.22;;;7.26;73.44
75063;BME280;63981;51.052;13.754;2023-06-04T03:40:25;100888.28;;;7.21;73.48
75063;BME280;63981;51.052;13.754;2023-06-04T03:42:51;100900.38;;;7.66;71.84
75063;BME280;63981;51.052;13.754;2023-06-04T03:45:19;100901.81;;;7.53;72.48
75063;BME280;63981;51.052;13.754;2023-06-04T03:47:45;100899.91;;;7.36;73.19
75063;BME280;63981;51.052;13.754;2023-06-04T03:50:11;100895.31;;;7.41;73.11
75063;BME280;63981;51.052;13.754;2023-06-04T03:52:37;100903.59;;;7.32;72.83
75063;BME280;63981;51.052;13.754;2023-06-04T03:55:04;100904.00;;;7.43;72.95
75063;BME280;63981;51.052;13.754;2023-06-04T03:57:31;100872.03;;;7.54;72.28
75063;BME280;63981;51.052;13.754;2023-06-04T03:59:59;100912.84;;;7.61;72.39
75063;BME280;63981;51.052;13.754;2023-06-04T04:02:25;100900.78;;;7.57;71.54
75063;BME280;63981;51.052;13.754;2023-06-04T04:04:51;100912.03;;;7.79;70.62
75063;BME280;63981;51.052;13.754;2023-06-04T04:07:20;100917.16;;;7.62;71.52
75063;BME280;63981;51.052;13.754;2023-06-04T04:09:47;100920.63;;;7.42;71.79
75063;BME280;63981;51.052;13.754;2023-06-04T04:12:12;100918.97;;;7.39;72.08
75063;BME280;63981;51.052;13.754;2023-06-04T04:14:39;100913.56;;;7.44;72.29
75063;BME280;63981;51.052;13.754;2023-06-04T04:17:05;100884.50;;;7.28;71.29
75063;BME280;63981;51.052;13.754;2023-06-04T04:19:31;100917.47;;;7.54;70.13
75063;BME280;63981;51.052;13.754;2023-06-04T04:21:57;100919.19;;;7.76;70.21
75063;BME280;63981;51.052;13.754;2023-06-04T04:24:27;100905.69;;;7.85;70.17
75063;BME280;63981;51.052;13.754;2023-06-04T04:26:57;100919.50;;;7.88;69.70
75063;BME280;63981;51.052;13.754;2023-06-04T04:29:26;100913.72;;;8.01;69.20
75063;BME280;63981;51.052;13.754;2023-06-04T04:31:55;100921.81;;;7.96;68.91
75063;BME280;63981;51.052;13.754;2023-06-04T04:34:26;100908.00;;;8.11;69.09
75063;BME280;63981;51.052;13.754;2023-06-04T04:36:53;100910.06;;;8.23;69.35
75063;BME280;63981;51.052;13.754;2023-06-04T04:39:23;100915.03;;;8.29;68.30
75063;BME280;63981;51.052;13.754;2023-06-04T04:41:52;100912.19;;;8.36;68.41
75063;BME280;63981;51.052;13.754;2023-06-04T04:44:18;100907.31;;;8.45;68.82
75063;BME280;63981;51.052;13.754;2023-06-04T04:46:43;100917.13;;;8.42;68.67
75063;BME280;63981;51.052;13.754;2023-06-04T04:49:09;100906.09;;;8.71;67.54
75063;BME280;63981;51.052;13.754;2023-06-04T04:51:35;100904.47;;;8.69;67.74
75063;BME280;63981;51.052;13.754;2023-06-04T04:54:02;100877.25;;;8.70;66.83
75063;BME280;63981;51.052;13.754;2023-06-04T04:56:33;100907.44;;;8.80;66.16
75063;BME280;63981;51.052;13.754;2023-06-04T04:59:00;100894.47;;;8.77;66.35
75063;BME280;63981;51.052;13.754;2023-06-04T05:01:26;100763.94;;;8.22;65.76
75063;BME280;63981;51.052;13.754;2023-06-04T05:03:53;100913.59;;;8.98;65.53
75063;BME280;63981;51.052;13.754;2023-06-04T05:06:19;100913.31;;;9.04;65.05
75063;BME280;63981;51.052;13.754;2023-06-04T05:08:45;100905.66;;;8.99;64.36
75063;BME280;63981;51.052;13.754;2023-06-04T05:11:13;100916.47;;;9.10;64.32
75063;BME280;63981;51.052;13.754;2023-06-04T05:13:40;100913.13;;;9.26;64.55
75063;BME280;63981;51.052;13.754;2023-06-04T05:16:08;100913.50;;;9.53;63.53
75063;BME280;63981;51.052;13.754;2023-06-04T05:18:37;100913.25;;;9.74;63.33
75063;BME280;63981;51.052;13.754;2023-06-04T05:21:08;100906.69;;;9.99;63.40
75063;BME280;63981;51.052;13.754;2023-06-04T05:23:40;100915.13;;;10.05;62.91
75063;BME280;63981;51.052;13.754;2023-06-04T05:26:07;100914.84;;;10.27;61.93
75063;BME280;63981;51.052;13.754;2023-06-04T05:28:34;100916.81;;;10.24;61.37
75063;BME280;63981;51.052;13.754;2023-06-04T05:31:00;100923.56;;;10.29;61.44
75063;BME280;63981;51.052;13.754;2023-06-04T05:33:30;100921.88;;;10.60;61.12
75063;BME280;63981;51.052;13.754;2023-06-04T05:36:00;100906.31;;;10.55;60.17
75063;BME280;63981;51.052;13.754;2023-06-04T05:38:30;100917.19;;;10.65;58.99
75063;BME280;63981;51.052;13.754;2023-06-04T05:41:01;100922.47;;;10.97;58.81
75063;BME280;63981;51.052;13.754;2023-06-04T05:43:31;100914.00;;;11.21;57.22
75063;BME280;63981;51.052;13.754;2023-06-04T05:45:57;100917.59;;;11.20;57.81
75063;BME280;63981;51.052;13.754;2023-06-04T05:48:23;100921.13;;;10.74;57.75
75063;BME280;63981;51.052;13.754;2023-06-04T05:50:50;100930.47;;;10.79;58.64
75063;BME280;63981;51.052;13.754;2023-06-04T05:53:16;100924.16;;;10.98;57.94
75063;BME280;63981;51.052;13.754;2023-06-04T05:55:43;100906.28;;;11.33;56.46
75063;BME280;63981;51.052;13.754;2023-06-04T05:58:09;100915.50;;;11.86;55.67
75063;BME280;63981;51.052;13.754;2023-06-04T06:00:35;100914.56;;;11.87;56.24
75063;BME280;63981;51.052;13.754;2023-06-04T06:03:00;100920.91;;;11.98;56.04
75063;BME280;63981;51.052;13.754;2023-06-04T06:05:40;100921.16;;;12.51;53.68
75063;BME280;63981;51.052;13.754;2023-06-04T06:08:06;100917.03;;;12.32;54.87
75063;BME280;63981;51.052;13.754;2023-06-04T06:10:32;100923.19;;;12.74;54.45
75063;BME280;63981;51.052;13.754;2023-06-04T06:12:58;100913.66;;;12.98;54.19
75063;BME280;63981;51.052;13.754;2023-06-04T06:15:26;100827.16;;;12.59;52.07
75063;BME280;63981;51.052;13.754;2023-06-04T06:17:53;100924.03;;;12.75;52.65
75063;BME280;63981;51.052;13.754;2023-06-04T06:20:19;100912.38;;;12.91;53.27
75063;BME280;63981;51.052;13.754;2023-06-04T06:22:46;100917.09;;;13.13;54.29
75063;BME280;63981;51.052;13.754;2023-06-04T06:25:13;100919.84;;;13.12;52.75
75063;BME280;63981;51.052;13.754;2023-06-04T06:27:47;100907.69;;;13.49;52.13
75063;BME280;63981;51.052;13.754;2023-06-04T06:30:15;100877.31;;;13.54;50.67
75063;BME280;63981;51.052;13.754;2023-06-04T06:32:42;100927.78;;;14.04;50.44
75063;BME280;63981;51.052;13.754;2023-06-04T06:35:08;100932.66;;;13.84;47.93
75063;BME280;63981;51.052;13.754;2023-06-04T06:37:34;100934.88;;;13.78;47.18
75063;BME280;63981;51.052;13.754;2023-06-04T06:40:00;100936.38;;;13.95;48.14
75063;BME280;63981;51.052;13.754;2023-06-04T06:42:25;100929.78;;;14.38;46.94
75063;BME280;63981;51.052;13.754;2023-06-04T06:44:52;100934.28;;;15.11;42.86
75063;BME280;63981;51.052;13.754;2023-06-04T06:47:18;100931.91;;;14.83;42.84
75063;BME280;63981;51.052;13.754;2023-06-04T06:49:44;100927.69;;;14.80;42.77
75063;BME280;63981;51.052;13.754;2023-06-04T06:52:10;100929.81;;;15.23;43.05
75063;BME280;63981;51.052;13.754;2023-06-04T06:54:36;100936.56;;;15.63;42.45
75063;BME280;63981;51.052;13.754;2023-06-04T06:57:02;100917.16;;;15.97;41.14
75063;BME280;63981;51.052;13.754;2023-06-04T06:59:34;100928.31;;;16.02;41.39
75063;BME280;63981;51.052;13.754;2023-06-04T07:02:00;100927.78;;;15.85;42.73
75063;BME280;63981;51.052;13.754;2023-06-04T07:04:26;100927.19;;;16.27;42.27
75063;BME280;63981;51.052;13.754;2023-06-04T07:06:52;100885.00;;;16.33;41.91
75063;BME280;63981;51.052;13.754;2023-06-04T07:09:18;100927.19;;;16.94;41.23
75063;BME280;63981;51.052;13.754;2023-06-04T07:11:43;100920.19;;;17.14;39.75
75063;BME280;63981;51.052;13.754;2023-06-04T07:14:09;100916.88;;;16.89;40.09
75063;BME280;63981;51.052;13.754;2023-06-04T07:16:35;100897.53;;;16.87;40.34
75063;BME280;63981;51.052;13.754;2023-06-04T07:19:01;100898.34;;;16.99;41.78
75063;BME280;63981;51.052;13.754;2023-06-04T07:21:27;100914.41;;;17.73;39.80
75063;BME280;63981;51.052;13.754;2023-06-04T07:23:53;100925.63;;;17.76;39.80
75063;BME280;63981;51.052;13.754;2023-06-04T07:26:19;100919.69;;;17.93;38.77
75063;BME280;63981;51.052;13.754;2023-06-04T07:28:46;100869.34;;;17.79;38.76
75063;BME280;63981;51.052;13.754;2023-06-04T07:31:15;100913.56;;;17.61;37.82
75063;BME280;63981;51.052;13.754;2023-06-04T07:33:41;100914.53;;;17.71;38.43
75063;BME280;63981;51.052;13.754;2023-06-04T07:36:17;100912.09;;;18.50;37.97
75063;BME280;63981;51.052;13.754;2023-06-04T07:38:43;100876.78;;;19.35;35.99
75063;BME280;63981;51.052;13.754;2023-06-04T07:41:10;100913.28;;;20.02;34.64
75063;BME280;63981;51.052;13.754;2023-06-04T07:43:36;100911.16;;;21.15;32.97
75063;BME280;63981;51.052;13.754;2023-06-04T07:46:05;100909.78;;;20.39;31.98
75063;BME280;63981;51.052;13.754;2023-06-04T07:48:31;100890.06;;;22.34;31.61
75063;BME280;63981;51.052;13.754;2023-06-04T07:50:58;100898.72;;;23.12;31.11
75063;BME280;63981;51.052;13.754;2023-06-04T07:53:25;100905.81;;;23.62;28.96
75063;BME280;63981;51.052;13.754;2023-06-04T07:55:52;100907.41;;;24.12;28.43
75063;BME280;63981;51.052;13.754;2023-06-04T07:58:18;100851.63;;;23.49;28.01
75063;BME280;63981;51.052;13.754;2023-06-04T08:00:43;100873.69;;;24.94;28.60
75063;BME280;63981;51.052;13.754;2023-06-04T08:03:09;100888.06;;;26.23;26.20
75063;BME280;63981;51.052;13.754;2023-06-04T08:05:36;100822.94;;;25.73;25.61
75063;BME280;63981;51.052;13.754;2023-06-04T08:08:02;100894.16;;;24.81;25.33
75063;BME280;63981;51.052;13.754;2023-06-04T08:10:29;100890.78;;;26.52;25.17
75063;BME280;63981;51.052;13.754;2023-06-04T08:12:56;100879.97;;;27.52;24.50
75063;BME280;63981;51.052;13.754;2023-06-04T08:15:22;100865.00;;;27.84;22.57
75063;BME280;63981;51.052;13.754;2023-06-04T08:18:08;100876.66;;;28.54;22.37
75063;BME280;63981;51.052;13.754;2023-06-04T08:20:41;100881.72;;;28.77;22.82
75063;BME280;63981;51.052;13.754;2023-06-04T08:23:25;100870.75;;;28.92;22.21
75063;BME280;63981;51.052;13.754;2023-06-04T08:26:11;100871.78;;;28.91;21.74
75063;BME280;63981;51.052;13.754;2023-06-04T08:28:48;100863.25;;;29.00;20.79
75063;BME280;63981;51.052;13.754;2023-06-04T08:31:34;100857.78;;;30.13;19.50
75063;BME280;63981;51.052;13.754;2023-06-04T08:34:08;100867.28;;;30.42;19.78
75063;BME280;63981;51.052;13.754;2023-06-04T08:36:35;100874.78;;;27.57;20.74
75063;BME280;63981;51.052;13.754;2023-06-04T08:39:01;100860.34;;;29.08;19.85
75063;BME280;63981;51.052;13.754;2023-06-04T08:41:50;100863.03;;;30.66;18.04
75063;BME280;63981;51.052;13.754;2023-06-04T08:44:17;100833.56;;;31.19;18.42
75063;BME280;63981;51.052;13.754;2023-06-04T08:46:44;100864.28;;;30.63;17.66
75063;BME280;63981;51.052;13.754;2023-06-04T08:49:12;100868.72;;;32.69;16.99
75063;BME280;63981;51.052;13.754;2023-06-04T08:51:39;100862.53;;;33.92;16.41
75063;BME280;63981;51.052;13.754;2023-06-04T08:54:06;100871.75;;;31.87;15.31
75063;BME280;63981;51.052;13.754;2023-06-04T08:56:34;100862.25;;;30.45;16.70
75063;BME280;63981;51.052;13.754;2023-06-04T08:59:02;100867.56;;;31.42;14.81
75063;BME280;63981;51.052;13.754;2023-06-04T09:01:32;100823.06;;;33.88;15.10
75063;BME280;63981;51.052;13.754;2023-06-04T09:04:01;100861.94;;;34.53;13.86
75063;BME280;63981;51.052;13.754;2023-06-04T09:06:29;100850.34;;;36.14;14.51
75063;BME280;63981;51.052;13.754;2023-06-04T09:09:00;100854.72;;;35.38;12.04
75063;BME280;63981;51.052;13.754;2023-06-04T09:11:33;100848.50;;;34.52;13.52
75063;BME280;63981;51.052;13.754;2023-06-04T09:14:04;100833.78;;;36.31;13.29
75063;BME280;63981;51.052;13.754;2023-06-04T09:16:42;100827.31;;;37.55;11.92
75063;BME280;63981;51.052;13.754;2023-06-04T09:19:08;100849.31;;;36.64;11.19
75063;BME280;63981;51.052;13.754;2023-06-04T09:21:34;100848.16;;;37.46;11.44
75063;BME280;63981;51.052;13.754;2023-06-04T09:24:00;100840.22;;;38.02;11.74
75063;BME280;63981;51.052;13.754;2023-06-04T09:26:25;100844.84;;;38.49;11.25
75063;BME280;63981;51.052;13.754;2023-06-04T09:28:51;100850.31;;;35.37;12.47
75063;BME280;63981;51.052;13.754;2023-06-04T09:31:20;100847.88;;;36.13;11.55
75063;BME280;63981;51.052;13.754;2023-06-04T09:33:52;100855.97;;;33.58;13.38
75063;BME280;63981;51.052;13.754;2023-06-04T09:36:18;100850.09;;;35.77;10.20
75063;BME280;63981;51.052;13.754;2023-06-04T09:38:43;100847.06;;;33.97;11.50
75063;BME280;63981;51.052;13.754;2023-06-04T09:41:16;100842.72;;;36.38;10.95
75063;BME280;63981;51.052;13.754;2023-06-04T09:43:42;100856.19;;;36.88;10.39
75063;BME280;63981;51.052;13.754;2023-06-04T09:46:11;100849.94;;;33.02;13.69
75063;BME280;63981;51.052;13.754;2023-06-04T09:48:38;100852.38;;;34.84;11.83
75063;BME280;63981;51.052;13.754;2023-06-04T09:51:14;100819.47;;;33.29;12.61
75063;BME280;63981;51.052;13.754;2023-06-04T09:53:41;100838.44;;;32.70;12.27
75063;BME280;63981;51.052;13.754;2023-06-04T09:56:07;100826.06;;;31.39;13.21
75063;BME280;63981;51.052;13.754;2023-06-04T09:58:34;100838.25;;;37.13;10.43
75063;BME280;63981;51.052;13.754;2023-06-04T10:01:04;100830.78;;;37.77;10.49
75063;BME280;63981;51.052;13.754;2023-06-04T10:03:35;100830.56;;;38.67;9.57
75063;BME280;63981;51.052;13.754;2023-06-04T10:06:03;100828.69;;;38.98;8.77
75063;BME280;63981;51.052;13.754;2023-06-04T10:08:31;100825.84;;;39.79;10.04
75063;BME280;63981;51.052;13.754;2023-06-04T10:11:00;100828.41;;;40.75;8.82
75063;BME280;63981;51.052;13.754;2023-06-04T10:13:38;100826.22;;;41.45;8.46
75063;BME280;63981;51.052;13.754;2023-06-04T10:16:07;100821.59;;;43.20;8.07
75063;BME280;63981;51.052;13.754;2023-06-04T10:18:33;100808.66;;;42.64;7.23
75063;BME280;63981;51.052;13.754;2023-06-04T10:21:00;100825.97;;;41.70;7.45
75063;BME280;63981;51.052;13.754;2023-06-04T10:23:26;100825.91;;;40.34;8.66
75063;BME280;63981;51.052;13.754;2023-06-04T10:25:54;100817.41;;;43.82;6.73
75063;BME280;63981;51.052;13.754;2023-06-04T10:28:20;100809.81;;;41.77;7.43
75063;BME280;63981;51.052;13.754;2023-06-04T10:30:47;100818.72;;;44.12;7.36
75063;BME280;63981;51.052;13.754;2023-06-04T10:33:20;100808.88;;;46.29;6.22
75063;BME280;63981;51.052;13.754;2023-06-04T10:35:54;100826.25;;;42.92;7.11
75063;BME280;63981;51.052;13.754;2023-06-04T10:38:21;100829.03;;;36.70;9.55
75063;BME280;63981;51.052;13.754;2023-06-04T10:40:48;100805.06;;;37.25;9.88
75063;BME280;63981;51.052;13.754;2023-06-04T10:43:14;100829.22;;;44.88;6.19
75063;BME280;63981;51.052;13.754;2023-06-04T10:45:44;100832.25;;;41.18;7.10
75063;BME280;63981;51.052;13.754;2023-06-04T10:48:12;100813.56;;;44.06;6.27
75063;BME280;63981;51.052;13.754;2023-06-04T10:50:56;100814.44;;;41.58;7.66
75063;BME280;63981;51.052;13.754;2023-06-04T10:53:22;100804.13;;;47.16;5.42
75063;BME280;63981;51.052;13.754;2023-06-04T10:55:49;100814.31;;;43.84;6.80
75063;BME280;63981;51.052;13.754;2023-06-04T10:58:15;100799.41;;;38.56;8.41
75063;BME280;63981;51.052;13.754;2023-06-04T11:00:43;100822.81;;;42.25;8.83
75063;BME280;63981;51.052;13.754;2023-06-04T11:03:12;100824.41;;;36.05;10.64
75063;BME280;63981;51.052;13.754;2023-06-04T11:05:43;100845.53;;;32.41;12.43
75063;BME280;63981;51.052;13.754;2023-06-04T11:08:10;100827.09;;;40.18;8.73
75063;BME280;63981;51.052;13.754;2023-06-04T11:10:42;100817.16;;;44.06;6.49
75063;BME280;63981;51.052;13.754;2023-06-04T11:13:08;100795.97;;;46.41;6.15
75063;BME280;63981;51.052;13.754;2023-06-04T11:15:52;100815.28;;;32.73;12.42
75063;BME280;63981;51.052;13.754;2023-06-04T11:18:21;100811.66;;;36.86;9.90
75063;BME280;63981;51.052;13.754;2023-06-04T11:20:50;100809.16;;;40.64;8.14
75063;BME280;63981;51.052;13.754;2023-06-04T11:23:16;100813.38;;;34.49;12.21
75063;BME280;63981;51.052;13.754;2023-06-04T11:25:42;100809.16;;;37.22;10.49
75063;BME280;63981;51.052;13.754;2023-06-04T11:28:16;100800.16;;;44.94;6.40
75063;BME280;63981;51.052;13.754;2023-06-04T11:31:00;100795.34;;;41.33;8.08
75063;BME280;63981;51.052;13.754;2023-06-04T11:33:29;100801.97;;;43.90;7.13
75063;BME280;63981;51.052;13.754;2023-06-04T11:35:55;100797.03;;;47.10;5.77
75063;BME280;63981;51.052;13.754;2023-06-04T11:38:21;100772.84;;;42.11;7.64
75063;BME280;63981;51.052;13.754;2023-06-04T11:40:58;100777.25;;;46.42;6.26
75063;BME280;63981;51.052;13.754;2023-06-04T11:43:24;100799.19;;;39.34;8.48
75063;BME280;63981;51.052;13.754;2023-06-04T11:45:50;100795.00;;;41.87;8.16
75063;BME280;63981;51.052;13.754;2023-06-04T11:48:34;100794.09;;;45.23;6.67
75063;BME280;63981;51.052;13.754;2023-06-04T11:51:05;100794.47;;;43.91;6.68
75063;BME280;63981;51.052;13.754;2023-06-04T11:53:32;100786.56;;;47.45;5.99
75063;BME280;63981;51.052;13.754;2023-06-04T11:55:58;100805.72;;;38.52;9.18
75063;BME280;63981;51.052;13.754;2023-06-04T11:58:24;100789.13;;;41.94;8.40
75063;BME280;63981;51.052;13.754;2023-06-04T12:00:50;100813.44;;;33.50;12.75
75063;BME280;63981;51.052;13.754;2023-06-04T12:03:16;100799.88;;;40.50;9.22
75063;BME280;63981;51.052;13.754;2023-06-04T12:05:42;100801.78;;;43.13;7.51
75063;BME280;63981;51.052;13.754;2023-06-04T12:08:09;100812.66;;;34.53;11.42
75063;BME280;63981;51.052;13.754;2023-06-04T12:10:39;100801.28;;;38.41;10.49
75063;BME280;63981;51.052;13.754;2023-06-04T12:13:05;100774.19;;;42.84;8.08
75063;BME280;63981;51.052;13.754;2023-06-04T12:15:31;100784.81;;;45.05;7.38
75063;BME280;63981;51.052;13.754;2023-06-04T12:17:57;100791.41;;;44.87;7.21
75063;BME280;63981;51.052;13.754;2023-06-04T12:20:39;100787.38;;;44.34;6.74
75063;BME280;63981;51.052;13.754;2023-06-04T12:23:06;100788.59;;;43.65;6.80
75063;BME280;63981;51.052;13.754;2023-06-04T12:25:34;100763.41;;;42.82;6.86
75063;BME280;63981;51.052;13.754;2023-06-04T12:28:00;100808.72;;;36.00;10.23
75063;BME280;63981;51.052;13.754;2023-06-04T12:30:37;100792.38;;;43.96;6.60
75063;BME280;63981;51.052;13.754;2023-06-04T12:33:04;100811.28;;;34.39;10.60
75063;BME280;63981;51.052;13.754;2023-06-04T12:35:30;100789.88;;;40.54;7.56
75063;BME280;63981;51.052;13.754;2023-06-04T12:37:56;100782.22;;;44.41;6.49
75063;BME280;63981;51.052;13.754;2023-06-04T12:40:22;100783.16;;;36.44;10.32
75063;BME280;63981;51.052;13.754;2023-06-04T12:42:50;100771.34;;;38.85;9.51
75063;BME280;63981;51.052;13.754;2023-06-04T12:45:16;100790.66;;;33.85;11.39
75063;BME280;63981;51.052;13.754;2023-06-04T12:47:43;100801.00;;;35.97;10.40
75063;BME280;63981;51.052;13.754;2023-06-04T12:50:09;100795.25;;;36.21;10.62
75063;BME280;63981;51.052;13.754;2023-06-04T12:52:36;100757.09;;;42.95;7.10
75063;BME280;63981;51.052;13.754;2023-06-04T12:55:01;100760.97;;;46.18;5.43
75063;BME280;63981;51.052;13.754;2023-06-04T12:57:28;100760.34;;;45.24;6.56